AGROMETEOROLOŠKI PORTAL

vinorodna pokrajina

Temelj dobrega kmetovanja

Pregled podatkov za lokacijo LITIJA ARSO, meteorološka postaja 142

Pregled senzorjev na lokaciji

ID Ime Zadnja
vrednost
Datum in čas
meritve
(lokalni čas)
Tip
senzorja
4723 Padavine (mm) 1 mm 29.9.2022 12:00 ARSO
4727 Relativna zračna vlaga (2 m) (% RH) 96 % RH 29.9.2022 12:00 ARSO
4726 Temperatura (2 m) (°C) 12,8 °C 29.9.2022 12:00 ARSO

Pregled podatkov zadnjih 24 ur

Zap.
št.
Datum in čas
(lokalni čas)
LITIJA ARSO
Padavine Relativna
zračna
vlaga
(2
m)
Temperatura
(2
m)
1 29.9.2022 12:00 1 95,5 12,8
2 29.9.2022 11:30 0,8 96 12,8
3 29.9.2022 11:00 2,5 96 12,7
4 29.9.2022 10:30 2,3 96 12,6
5 29.9.2022 10:00 11,4 96 12,6
6 29.9.2022 09:30 1,1 96 12,7
7 29.9.2022 09:00 0 96 12,5
8 29.9.2022 08:30 3,4 96 12,4
9 29.9.2022 08:00 6,9 96 12,5
10 29.9.2022 07:30 1,6 96 12,5
11 29.9.2022 07:00 0,1 96 12,4
12 29.9.2022 06:30 1 96 12,4
13 29.9.2022 06:00 1,1 96 12,5
14 29.9.2022 05:30 0 96 12,6
15 29.9.2022 05:00 0 96 12,5
16 29.9.2022 04:30 0 96,3 12,5
17 29.9.2022 04:00 0 96 12,5
18 29.9.2022 03:30 0,7 96 12,5
19 29.9.2022 03:00 0 96,3 12,5
20 29.9.2022 02:30 0 96 12,6
21 29.9.2022 02:00 0 96 12,5
22 29.9.2022 01:30 0 96 12,5
23 29.9.2022 01:00 0,4 96 12,4
24 29.9.2022 00:30 0,3 95 12,5
25 29.9.2022 00:00 0,1 95,7 12,3
26 28.9.2022 23:30 2,1 96 12,3
27 28.9.2022 23:00 2,5 96 12,3
28 28.9.2022 22:30 2 95,7 12,3
29 28.9.2022 22:00 2,6 95 12,4
30 28.9.2022 21:30 0,3 95 12,3
31 28.9.2022 21:00 0 95 12,2
32 28.9.2022 20:30 0 95 12,4
33 28.9.2022 20:00 0 94 12,4
34 28.9.2022 19:30 0 93 12,4
35 28.9.2022 19:00 0 91,3 12,9
36 28.9.2022 18:30 0 89,3 13,3
37 28.9.2022 18:00 0 84,3 13,6
38 28.9.2022 17:30 0 85 13,8
39 28.9.2022 17:00 0,1 84 13,8
40 28.9.2022 16:30 0 79,3 14,3
41 28.9.2022 16:00 0 78,7 14,5
42 28.9.2022 15:30 0 75,7 14,6
43 28.9.2022 15:00 0 75 14,5
44 28.9.2022 14:30 0 75,3 14,3
45 28.9.2022 14:00 0 73,3 14,2